PWSweather.com
Personal Weather Stations
Station Observations
KCOGRAND2
Redlands, Southcamp Road & Dakota Circle, Grand Junction, CO 81507

Redlands, Southcamp Road & Dakota CircleGrand Junction, CO 81507

Lat: 39.055, Lon: -108.637

Elevation: 4870

Station Type: RadioShack WX200

Latest ConditionsUpdated 12:51:10 PM MST Sunday, Nov 19, 2017
Currently Today's Max Today's Min Today's Average
Temperature 41.7°F5.4°C 42.3°F5.7°C 21.0°F-6.1°C 29.0°F-1.7°C
Dew Point 1.4°F-17.0°C 11.1°F-11.6°C 0.5°F-17.5°C 7.2°F-13.8°C
Winds 4.0 mph SE6.4 kmh SE 6.0 mph W9.7 kmh W - 2.1 mph 3.4 kmh
Wind Gusts 5.8 mph9.3 kmh 9.6 mph15.4 kmh - -
Humidity 18% 51% 18% 40%
Pressure 25.28 in856.1 mb 25.37 in859.1 mb 25.28 in856.1 mb -
Hour Temp Dew Point Humidity Winds Wind Gusts Pressure Precip Precip Rate Daily Precip Total
12:51 PM 41.7°F5.4°C 1.4°F-17.0°C 18% 4.0 mph SE6.4 kmh SE 5.8 mph9.3 kmh 25.28 in856.1 mb 0.00 in0.0 mm 0.00 in0.0 mm 0.00 in0.0 mm
12:46 PM 41.2°F5.1°C 0.9°F-17.3°C 18% 3.0 mph SW4.8 kmh SW 6.7 mph10.8 kmh 25.28 in856.1 mb 0.00 in0.0 mm 0.00 in0.0 mm 0.00 in0.0 mm
12:41 PM 42.3°F5.7°C 1.8°F-16.8°C 18% 2.0 mph WSW3.2 kmh WSW 4.0 mph6.4 kmh 25.28 in856.1 mb 0.00 in0.0 mm 0.00 in0.0 mm 0.00 in0.0 mm
12:36 PM 41.2°F5.1°C 0.9°F-17.3°C 18% 3.0 mph SW4.8 kmh SW 5.4 mph8.7 kmh 25.28 in856.1 mb 0.00 in0.0 mm 0.00 in0.0 mm 0.00 in0.0 mm
12:31 PM 40.6°F4.8°C 0.5°F-17.5°C 18% 4.0 mph WSW6.4 kmh WSW 6.3 mph10.1 kmh 25.28 in856.1 mb 0.00 in0.0 mm 0.00 in0.0 mm 0.00 in0.0 mm
12:26 PM 40.6°F4.8°C 0.5°F-17.5°C 18% 3.0 mph WSW4.8 kmh WSW 6.7 mph10.8 kmh 25.28 in856.1 mb 0.00 in0.0 mm 0.00 in0.0 mm 0.00 in0.0 mm
12:21 PM 40.6°F4.8°C 3.7°F-15.7°C 21% 2.0 mph WSW3.2 kmh WSW 5.4 mph8.7 kmh 25.31 in857.1 mb 0.00 in0.0 mm 0.00 in0.0 mm 0.00 in0.0 mm
12:16 PM 39.4°F4.1°C 2.7°F-16.3°C 21% 2.0 mph WSW3.2 kmh WSW 5.8 mph9.3 kmh 25.31 in857.1 mb 0.00 in0.0 mm 0.00 in0.0 mm 0.00 in0.0 mm
12:11 PM 39.4°F4.1°C 2.7°F-16.3°C 21% 3.0 mph WSW4.8 kmh WSW 4.5 mph7.2 kmh 25.31 in857.1 mb 0.00 in0.0 mm 0.00 in0.0 mm 0.00 in0.0 mm
12:06 PM 38.5°F3.6°C 3.9°F-15.6°C 23% 4.0 mph W6.4 kmh W 5.8 mph9.3 kmh 25.31 in857.1 mb 0.00 in0.0 mm 0.00 in0.0 mm 0.00 in0.0 mm
12:01 PM 38.7°F3.7°C 4.1°F-15.5°C 23% 4.0 mph WNW6.4 kmh WNW 5.8 mph9.3 kmh 25.31 in857.1 mb 0.00 in0.0 mm 0.00 in0.0 mm 0.00 in0.0 mm
11:56 AM 38.8°F3.8°C 4.3°F-15.4°C 23% 3.0 mph NW4.8 kmh NW 5.4 mph8.7 kmh 25.31 in857.1 mb 0.00 in0.0 mm 0.00 in0.0 mm 0.00 in0.0 mm
11:51 AM 38.8°F3.8°C 7.0°F-13.9°C 26% 3.0 mph WNW4.8 kmh WNW 5.4 mph8.7 kmh 25.31 in857.1 mb 0.00 in0.0 mm 0.00 in0.0 mm 0.00 in0.0 mm
11:46 AM 38.1°F3.4°C 4.6°F-15.2°C 24% 4.0 mph WSW6.4 kmh WSW 7.4 mph11.9 kmh 25.31 in857.1 mb 0.00 in0.0 mm 0.00 in0.0 mm 0.00 in0.0 mm
11:41 AM 38.3°F3.5°C 6.4°F-14.2°C 26% 5.0 mph WSW8.0 kmh WSW 9.2 mph14.8 kmh 25.31 in857.1 mb 0.00 in0.0 mm 0.00 in0.0 mm 0.00 in0.0 mm
11:36 AM 37.9°F3.3°C 6.1°F-14.4°C 26% 4.0 mph W6.4 kmh W 8.7 mph14.0 kmh 25.31 in857.1 mb 0.00 in0.0 mm 0.00 in0.0 mm 0.00 in0.0 mm
11:30 AM 38.3°F3.5°C 6.4°F-14.2°C 26% 4.0 mph W6.4 kmh W 6.7 mph10.8 kmh 25.31 in857.1 mb 0.00 in0.0 mm 0.00 in0.0 mm 0.00 in0.0 mm
11:25 AM 36.9°F2.7°C 5.2°F-14.9°C 26% 5.0 mph NW8.0 kmh NW 7.4 mph11.9 kmh 25.31 in857.1 mb 0.00 in0.0 mm 0.00 in0.0 mm 0.00 in0.0 mm
11:20 AM 37.6°F3.1°C 5.9°F-14.5°C 26% 4.0 mph NNW6.4 kmh NNW 8.3 mph13.4 kmh 25.34 in858.1 mb 0.00 in0.0 mm 0.00 in0.0 mm 0.00 in0.0 mm
11:15 AM 37.2°F2.9°C 5.5°F-14.7°C 26% 4.0 mph NNW6.4 kmh NNW 7.8 mph12.6 kmh 25.34 in858.1 mb 0.00 in0.0 mm 0.00 in0.0 mm 0.00 in0.0 mm
11:10 AM 37.4°F3.0°C 8.1°F-13.3°C 29% 3.0 mph WNW4.8 kmh WNW 6.3 mph10.1 kmh 25.34 in858.1 mb 0.00 in0.0 mm 0.00 in0.0 mm 0.00 in0.0 mm
11:05 AM 36.3°F2.4°C 7.9°F-13.4°C 30% 4.0 mph W6.4 kmh W 5.8 mph9.3 kmh 25.34 in858.1 mb 0.00 in0.0 mm 0.00 in0.0 mm 0.00 in0.0 mm
11:00 AM 35.4°F1.9°C 7.2°F-13.8°C 30% 4.0 mph NW6.4 kmh NW 7.8 mph12.6 kmh 25.34 in858.1 mb 0.00 in0.0 mm 0.00 in0.0 mm 0.00 in0.0 mm
10:55 AM 36.1°F2.3°C 7.7°F-13.5°C 30% 3.0 mph NW4.8 kmh NW 6.7 mph10.8 kmh 25.34 in858.1 mb 0.00 in0.0 mm 0.00 in0.0 mm 0.00 in0.0 mm
10:50 AM 36.7°F2.6°C 8.2°F-13.2°C 30% 2.0 mph NNW3.2 kmh NNW 6.3 mph10.1 kmh 25.34 in858.1 mb 0.00 in0.0 mm 0.00 in0.0 mm 0.00 in0.0 mm
10:45 AM 35.6°F2.0°C 7.3°F-13.7°C 30% 4.0 mph NW6.4 kmh NW 6.3 mph10.1 kmh 25.34 in858.1 mb 0.00 in0.0 mm 0.00 in0.0 mm 0.00 in0.0 mm
10:40 AM 34.9°F1.6°C 6.6°F-14.1°C 30% 4.0 mph WNW6.4 kmh WNW 6.9 mph11.1 kmh 25.34 in858.1 mb 0.00 in0.0 mm 0.00 in0.0 mm 0.00 in0.0 mm
10:35 AM 34.9°F1.6°C 7.3°F-13.7°C 31% 4.0 mph WSW6.4 kmh WSW 6.3 mph10.1 kmh 25.34 in858.1 mb 0.00 in0.0 mm 0.00 in0.0 mm 0.00 in0.0 mm
10:30 AM 34.0°F1.1°C 6.6°F-14.1°C 31% 4.0 mph W6.4 kmh W 5.8 mph9.3 kmh 25.34 in858.1 mb 0.00 in0.0 mm 0.00 in0.0 mm 0.00 in0.0 mm
10:25 AM 34.3°F1.3°C 6.8°F-14.0°C 31% 4.0 mph W6.4 kmh W 6.9 mph11.1 kmh 25.34 in858.1 mb 0.00 in0.0 mm 0.00 in0.0 mm 0.00 in0.0 mm
10:20 AM 33.6°F0.9°C 6.3°F-14.3°C 31% 4.0 mph WNW6.4 kmh WNW 6.7 mph10.8 kmh 25.34 in858.1 mb 0.00 in0.0 mm 0.00 in0.0 mm 0.00 in0.0 mm
10:15 AM 33.8°F1.0°C 6.4°F-14.2°C 31% 4.0 mph WNW6.4 kmh WNW 7.4 mph11.9 kmh 25.34 in858.1 mb 0.00 in0.0 mm 0.00 in0.0 mm 0.00 in0.0 mm
10:10 AM 33.8°F1.0°C 6.4°F-14.2°C 31% 4.0 mph NW6.4 kmh NW 6.9 mph11.1 kmh 25.34 in858.1 mb 0.00 in0.0 mm 0.00 in0.0 mm 0.00 in0.0 mm
10:05 AM 33.8°F1.0°C 6.4°F-14.2°C 31% 4.0 mph NW6.4 kmh NW 6.3 mph10.1 kmh 25.34 in858.1 mb 0.00 in0.0 mm 0.00 in0.0 mm 0.00 in0.0 mm
10:00 AM 33.6°F0.9°C 7.0°F-13.9°C 32% 5.0 mph NW8.0 kmh NW 7.4 mph11.9 kmh 25.34 in858.1 mb 0.00 in0.0 mm 0.00 in0.0 mm 0.00 in0.0 mm
09:55 AM 32.7°F0.4°C 6.8°F-14.0°C 33% 5.0 mph WNW8.0 kmh WNW 8.3 mph13.4 kmh 25.34 in858.1 mb 0.00 in0.0 mm 0.00 in0.0 mm 0.00 in0.0 mm
09:50 AM 32.0°F0.0°C 8.1°F-13.3°C 36% 5.0 mph WNW8.0 kmh WNW 7.4 mph11.9 kmh 25.37 in859.1 mb 0.00 in0.0 mm 0.00 in0.0 mm 0.00 in0.0 mm
09:45 AM 32.0°F0.0°C 9.3°F-12.6°C 38% 5.0 mph WNW8.0 kmh WNW 6.7 mph10.8 kmh 25.37 in859.1 mb 0.00 in0.0 mm 0.00 in0.0 mm 0.00 in0.0 mm
09:40 AM 30.9°F-0.6°C 8.4°F-13.1°C 38% 5.0 mph W8.0 kmh W 6.9 mph11.1 kmh 25.37 in859.1 mb 0.00 in0.0 mm 0.00 in0.0 mm 0.00 in0.0 mm
09:35 AM 30.9°F-0.6°C 9.0°F-12.8°C 39% 5.0 mph W8.0 kmh W 6.9 mph11.1 kmh 25.37 in859.1 mb 0.00 in0.0 mm 0.00 in0.0 mm 0.00 in0.0 mm
09:30 AM 30.6°F-0.8°C 8.6°F-13.0°C 39% 6.0 mph WNW9.7 kmh WNW 7.8 mph12.6 kmh 25.37 in859.1 mb 0.00 in0.0 mm 0.00 in0.0 mm 0.00 in0.0 mm
09:25 AM 30.7°F-0.7°C 9.9°F-12.3°C 41% 6.0 mph NW9.7 kmh NW 9.2 mph14.8 kmh 25.37 in859.1 mb 0.00 in0.0 mm 0.00 in0.0 mm 0.00 in0.0 mm
09:20 AM 30.7°F-0.7°C 9.9°F-12.3°C 41% 6.0 mph NW9.7 kmh NW 9.2 mph14.8 kmh 25.37 in859.1 mb 0.00 in0.0 mm 0.00 in0.0 mm 0.00 in0.0 mm
09:15 AM 30.2°F-1.0°C 9.3°F-12.6°C 41% 5.0 mph WNW8.0 kmh WNW 8.3 mph13.4 kmh 25.37 in859.1 mb 0.00 in0.0 mm 0.00 in0.0 mm 0.00 in0.0 mm
09:10 AM 30.2°F-1.0°C 9.3°F-12.6°C 41% 5.0 mph W8.0 kmh W 7.4 mph11.9 kmh 25.37 in859.1 mb 0.00 in0.0 mm 0.00 in0.0 mm 0.00 in0.0 mm
09:05 AM 29.8°F-1.2°C 9.0°F-12.8°C 41% 6.0 mph W9.7 kmh W 9.6 mph15.4 kmh 25.37 in859.1 mb 0.00 in0.0 mm 0.00 in0.0 mm 0.00 in0.0 mm
09:00 AM 29.5°F-1.4°C 8.8°F-12.9°C 41% 5.0 mph WSW8.0 kmh WSW 8.7 mph14.0 kmh 25.37 in859.1 mb 0.00 in0.0 mm 0.00 in0.0 mm 0.00 in0.0 mm
08:55 AM 29.7°F-1.3°C 9.5°F-12.5°C 42% 6.0 mph W9.7 kmh W 7.8 mph12.6 kmh 25.37 in859.1 mb 0.00 in0.0 mm 0.00 in0.0 mm 0.00 in0.0 mm
08:50 AM 29.3°F-1.5°C 9.1°F-12.7°C 42% 6.0 mph W9.7 kmh W 7.4 mph11.9 kmh 25.37 in859.1 mb 0.00 in0.0 mm 0.00 in0.0 mm 0.00 in0.0 mm
08:45 AM 29.7°F-1.3°C 9.0°F-12.8°C 41% 5.0 mph W8.0 kmh W 7.4 mph11.9 kmh 25.37 in859.1 mb 0.00 in0.0 mm 0.00 in0.0 mm 0.00 in0.0 mm
08:40 AM 30.2°F-1.0°C 8.2°F-13.2°C 39% 5.0 mph W8.0 kmh W 6.9 mph11.1 kmh 25.37 in859.1 mb 0.00 in0.0 mm 0.00 in0.0 mm 0.00 in0.0 mm
08:35 AM 30.6°F-0.8°C 8.1°F-13.3°C 38% 5.0 mph W8.0 kmh W 6.3 mph10.1 kmh 25.37 in859.1 mb 0.00 in0.0 mm 0.00 in0.0 mm 0.00 in0.0 mm
08:30 AM 31.3°F-0.4°C 8.1°F-13.3°C 37% 4.0 mph W6.4 kmh W 6.3 mph10.1 kmh 25.37 in859.1 mb 0.00 in0.0 mm 0.00 in0.0 mm 0.00 in0.0 mm
08:25 AM 32.0°F0.0°C 6.8°F-14.0°C 34% 4.0 mph NW6.4 kmh NW 6.3 mph10.1 kmh 25.37 in859.1 mb 0.00 in0.0 mm 0.00 in0.0 mm 0.00 in0.0 mm
08:20 AM 33.1°F0.6°C 10.2°F-12.1°C 38% 3.0 mph NW4.8 kmh NW 4.9 mph7.9 kmh 25.37 in859.1 mb 0.00 in0.0 mm 0.00 in0.0 mm 0.00 in0.0 mm
08:15 AM 32.7°F0.4°C 11.1°F-11.6°C 40% 2.0 mph NW3.2 kmh NW 4.9 mph7.9 kmh 25.37 in859.1 mb 0.00 in0.0 mm 0.00 in0.0 mm 0.00 in0.0 mm
08:10 AM 30.9°F-0.6°C 10.0°F-12.2°C 41% 3.0 mph NW4.8 kmh NW 5.8 mph9.3 kmh 25.37 in859.1 mb 0.00 in0.0 mm 0.00 in0.0 mm 0.00 in0.0 mm
08:05 AM 30.0°F-1.1°C 9.1°F-12.7°C 41% 4.0 mph NW6.4 kmh NW 6.3 mph10.1 kmh 25.37 in859.1 mb 0.00 in0.0 mm 0.00 in0.0 mm 0.00 in0.0 mm
08:00 AM 28.6°F-1.9°C 8.4°F-13.1°C 42% 4.0 mph NW6.4 kmh NW 7.8 mph12.6 kmh 25.37 in859.1 mb 0.00 in0.0 mm 0.00 in0.0 mm 0.00 in0.0 mm
07:55 AM 27.0°F-2.8°C 7.5°F-13.6°C 43% 4.0 mph NW6.4 kmh NW 6.3 mph10.1 kmh 25.37 in859.1 mb 0.00 in0.0 mm 0.00 in0.0 mm 0.00 in0.0 mm
07:50 AM 25.9°F-3.4°C 6.4°F-14.2°C 43% 3.0 mph NW4.8 kmh NW 5.4 mph8.7 kmh 25.37 in859.1 mb 0.00 in0.0 mm 0.00 in0.0 mm 0.00 in0.0 mm
07:45 AM 25.9°F-3.4°C 7.0°F-13.9°C 44% 3.0 mph NW4.8 kmh NW 6.3 mph10.1 kmh 25.37 in859.1 mb 0.00 in0.0 mm 0.00 in0.0 mm 0.00 in0.0 mm
07:40 AM 25.3°F-3.7°C 7.9°F-13.4°C 47% 4.0 mph NW6.4 kmh NW 5.8 mph9.3 kmh 25.37 in859.1 mb 0.00 in0.0 mm 0.00 in0.0 mm 0.00 in0.0 mm
07:35 AM 23.9°F-4.5°C 8.1°F-13.3°C 50% 4.0 mph NW6.4 kmh NW 6.3 mph10.1 kmh 25.37 in859.1 mb 0.00 in0.0 mm 0.00 in0.0 mm 0.00 in0.0 mm
07:30 AM 22.3°F-5.4°C 7.0°F-13.9°C 51% 3.0 mph NW4.8 kmh NW 5.4 mph8.7 kmh 25.37 in859.1 mb 0.00 in0.0 mm 0.00 in0.0 mm 0.00 in0.0 mm
07:25 AM 22.3°F-5.4°C 6.4°F-14.2°C 50% 3.0 mph NW4.8 kmh NW 4.9 mph7.9 kmh 25.37 in859.1 mb 0.00 in0.0 mm 0.00 in0.0 mm 0.00 in0.0 mm
07:20 AM 21.0°F-6.1°C 4.5°F-15.3°C 48% 4.0 mph NW6.4 kmh NW 5.8 mph9.3 kmh 25.34 in858.1 mb 0.00 in0.0 mm 0.00 in0.0 mm 0.00 in0.0 mm
07:15 AM 22.3°F-5.4°C 4.6°F-15.2°C 46% 3.0 mph NW4.8 kmh NW 5.8 mph9.3 kmh 25.34 in858.1 mb 0.00 in0.0 mm 0.00 in0.0 mm 0.00 in0.0 mm
07:10 AM 23.7°F-4.6°C 6.4°F-14.2°C 47% 1.0 mph NW1.6 kmh NW 4.9 mph7.9 kmh 25.34 in858.1 mb 0.00 in0.0 mm 0.00 in0.0 mm 0.00 in0.0 mm
07:05 AM 23.2°F-4.9°C 5.5°F-14.7°C 46% Calm Calm -- 25.37 in859.1 mb 0.00 in0.0 mm 0.00 in0.0 mm 0.00 in0.0 mm
07:00 AM 23.0°F-5.0°C 4.8°F-15.1°C 45% Calm Calm -- 25.37 in859.1 mb 0.00 in0.0 mm 0.00 in0.0 mm 0.00 in0.0 mm
06:55 AM 23.5°F-4.7°C 5.4°F-14.8°C 45% Calm Calm -- 25.37 in859.1 mb 0.00 in0.0 mm 0.00 in0.0 mm 0.00 in0.0 mm
06:50 AM 23.5°F-4.7°C 5.4°F-14.8°C 45% Calm Calm -- 25.37 in859.1 mb 0.00 in0.0 mm 0.00 in0.0 mm 0.00 in0.0 mm
06:45 AM 23.9°F-4.5°C 5.2°F-14.9°C 44% Calm Calm 3.6 mph5.8 kmh 25.37 in859.1 mb 0.00 in0.0 mm 0.00 in0.0 mm 0.00 in0.0 mm
06:40 AM 24.8°F-4.0°C 7.0°F-13.9°C 46% Calm Calm 4.0 mph6.4 kmh 25.37 in859.1 mb 0.00 in0.0 mm 0.00 in0.0 mm 0.00 in0.0 mm
06:35 AM 23.7°F-4.6°C 6.4°F-14.2°C 47% Calm Calm 4.5 mph7.2 kmh 25.34 in858.1 mb 0.00 in0.0 mm 0.00 in0.0 mm 0.00 in0.0 mm
06:30 AM 23.0°F-5.0°C 5.4°F-14.8°C 46% Calm Calm -- 25.34 in858.1 mb 0.00 in0.0 mm 0.00 in0.0 mm 0.00 in0.0 mm
06:25 AM 23.5°F-4.7°C 5.9°F-14.5°C 46% Calm Calm -- 25.34 in858.1 mb 0.00 in0.0 mm 0.00 in0.0 mm 0.00 in0.0 mm
06:20 AM 24.1°F-4.4°C 5.9°F-14.5°C 45% Calm Calm 5.4 mph8.7 kmh 25.34 in858.1 mb 0.00 in0.0 mm 0.00 in0.0 mm 0.00 in0.0 mm
06:15 AM 23.9°F-4.5°C 6.6°F-14.1°C 47% Calm Calm 3.1 mph5.0 kmh 25.34 in858.1 mb 0.00 in0.0 mm 0.00 in0.0 mm 0.00 in0.0 mm
06:10 AM 23.4°F-4.8°C 6.1°F-14.4°C 47% Calm Calm -- 25.34 in858.1 mb 0.00 in0.0 mm 0.00 in0.0 mm 0.00 in0.0 mm
06:05 AM 23.5°F-4.7°C 5.9°F-14.5°C 46% Calm Calm -- 25.34 in858.1 mb 0.00 in0.0 mm 0.00 in0.0 mm 0.00 in0.0 mm
06:00 AM 24.3°F-4.3°C 6.4°F-14.2°C 46% Calm Calm -- 25.34 in858.1 mb 0.00 in0.0 mm 0.00 in0.0 mm 0.00 in0.0 mm
05:55 AM 24.4°F-4.2°C 6.3°F-14.3°C 45% Calm Calm -- 25.34 in858.1 mb 0.00 in0.0 mm 0.00 in0.0 mm 0.00 in0.0 mm
05:50 AM 25.3°F-3.7°C 7.5°F-13.6°C 46% 1.0 mph NNW1.6 kmh NNW 4.5 mph7.2 kmh 25.34 in858.1 mb 0.00 in0.0 mm 0.00 in0.0 mm 0.00 in0.0 mm
05:45 AM 25.5°F-3.6°C 8.1°F-13.3°C 47% 1.0 mph NNW1.6 kmh NNW 3.6 mph5.8 kmh 25.34 in858.1 mb 0.00 in0.0 mm 0.00 in0.0 mm 0.00 in0.0 mm
05:40 AM 25.5°F-3.6°C 8.6°F-13.0°C 48% Calm Calm 4.0 mph6.4 kmh 25.34 in858.1 mb 0.00 in0.0 mm 0.00 in0.0 mm 0.00 in0.0 mm
05:34 AM 25.5°F-3.6°C 8.6°F-13.0°C 48% 1.0 mph NNW1.6 kmh NNW 3.1 mph5.0 kmh 25.34 in858.1 mb 0.00 in0.0 mm 0.00 in0.0 mm 0.00 in0.0 mm
05:29 AM 25.0°F-3.9°C 8.1°F-13.3°C 48% 3.0 mph NW4.8 kmh NW 5.8 mph9.3 kmh 25.34 in858.1 mb 0.00 in0.0 mm 0.00 in0.0 mm 0.00 in0.0 mm
05:24 AM 25.3°F-3.7°C 8.4°F-13.1°C 48% 2.0 mph NNW3.2 kmh NNW 5.8 mph9.3 kmh 25.34 in858.1 mb 0.00 in0.0 mm 0.00 in0.0 mm 0.00 in0.0 mm
05:19 AM 25.2°F-3.8°C 7.9°F-13.4°C 47% 2.0 mph NNW3.2 kmh NNW 4.9 mph7.9 kmh 25.34 in858.1 mb 0.00 in0.0 mm 0.00 in0.0 mm 0.00 in0.0 mm
05:14 AM 25.2°F-3.8°C 7.9°F-13.4°C 47% 3.0 mph NW4.8 kmh NW 5.8 mph9.3 kmh 25.34 in858.1 mb 0.00 in0.0 mm 0.00 in0.0 mm 0.00 in0.0 mm
05:09 AM 25.7°F-3.5°C 8.2°F-13.2°C 47% 3.0 mph NW4.8 kmh NW 5.8 mph9.3 kmh 25.34 in858.1 mb 0.00 in0.0 mm 0.00 in0.0 mm 0.00 in0.0 mm
05:04 AM 24.8°F-4.0°C 6.4°F-14.2°C 45% 3.0 mph NW4.8 kmh NW 6.3 mph10.1 kmh 25.37 in859.1 mb 0.00 in0.0 mm 0.00 in0.0 mm 0.00 in0.0 mm
04:59 AM 25.3°F-3.7°C 7.0°F-13.9°C 45% 3.0 mph NW4.8 kmh NW 5.4 mph8.7 kmh 25.37 in859.1 mb 0.00 in0.0 mm 0.00 in0.0 mm 0.00 in0.0 mm
04:54 AM 25.9°F-3.4°C 7.0°F-13.9°C 44% 3.0 mph NW4.8 kmh NW 4.9 mph7.9 kmh 25.37 in859.1 mb 0.00 in0.0 mm 0.00 in0.0 mm 0.00 in0.0 mm
04:49 AM 26.2°F-3.2°C 7.9°F-13.4°C 45% 3.0 mph NW4.8 kmh NW 5.4 mph8.7 kmh 25.37 in859.1 mb 0.00 in0.0 mm 0.00 in0.0 mm 0.00 in0.0 mm
04:44 AM 25.5°F-3.6°C 7.2°F-13.8°C 45% 2.0 mph NW3.2 kmh NW 5.8 mph9.3 kmh 25.37 in859.1 mb 0.00 in0.0 mm 0.00 in0.0 mm 0.00 in0.0 mm
04:39 AM 24.8°F-4.0°C 6.4°F-14.2°C 45% 1.0 mph NW1.6 kmh NW 4.5 mph7.2 kmh 25.37 in859.1 mb 0.00 in0.0 mm 0.00 in0.0 mm 0.00 in0.0 mm
04:34 AM 25.2°F-3.8°C 7.3°F-13.7°C 46% 1.0 mph NW1.6 kmh NW 3.6 mph5.8 kmh 25.37 in859.1 mb 0.00 in0.0 mm 0.00 in0.0 mm 0.00 in0.0 mm
04:29 AM 24.8°F-4.0°C 7.5°F-13.6°C 47% 2.0 mph NW3.2 kmh NW 4.0 mph6.4 kmh 25.37 in859.1 mb 0.00 in0.0 mm 0.00 in0.0 mm 0.00 in0.0 mm
04:24 AM 24.4°F-4.2°C 7.5°F-13.6°C 48% 2.0 mph NW3.2 kmh NW 5.4 mph8.7 kmh 25.37 in859.1 mb 0.00 in0.0 mm 0.00 in0.0 mm 0.00 in0.0 mm
04:19 AM 24.6°F-4.1°C 7.3°F-13.7°C 47% Calm Calm 6.9 mph11.1 kmh 25.37 in859.1 mb 0.00 in0.0 mm 0.00 in0.0 mm 0.00 in0.0 mm
04:14 AM 25.3°F-3.7°C 8.4°F-13.1°C 48% Calm Calm -- 25.37 in859.1 mb 0.00 in0.0 mm 0.00 in0.0 mm 0.00 in0.0 mm
04:09 AM 25.0°F-3.9°C 8.6°F-13.0°C 49% Calm Calm 3.1 mph5.0 kmh 25.37 in859.1 mb 0.00 in0.0 mm 0.00 in0.0 mm 0.00 in0.0 mm
04:04 AM 24.8°F-4.0°C 8.8°F-12.9°C 50% Calm Calm 4.5 mph7.2 kmh 25.34 in858.1 mb 0.00 in0.0 mm 0.00 in0.0 mm 0.00 in0.0 mm
03:59 AM 24.1°F-4.4°C 8.2°F-13.2°C 50% Calm Calm -- 25.34 in858.1 mb 0.00 in0.0 mm 0.00 in0.0 mm 0.00 in0.0 mm
03:54 AM 23.7°F-4.6°C 7.9°F-13.4°C 50% Calm Calm -- 25.34 in858.1 mb 0.00 in0.0 mm 0.00 in0.0 mm 0.00 in0.0 mm
03:49 AM 23.0°F-5.0°C 6.8°F-14.0°C 49% Calm Calm 2.7 mph4.3 kmh 25.37 in859.1 mb 0.00 in0.0 mm 0.00 in0.0 mm 0.00 in0.0 mm
03:44 AM 24.1°F-4.4°C 7.3°F-13.7°C 48% Calm Calm 3.1 mph5.0 kmh 25.37 in859.1 mb 0.00 in0.0 mm 0.00 in0.0 mm 0.00 in0.0 mm
03:39 AM 24.8°F-4.0°C 8.4°F-13.1°C 49% Calm Calm 2.7 mph4.3 kmh 25.37 in859.1 mb 0.00 in0.0 mm 0.00 in0.0 mm 0.00 in0.0 mm
03:34 AM 24.6°F-4.1°C 7.7°F-13.5°C 48% Calm Calm 2.7 mph4.3 kmh 25.37 in859.1 mb 0.00 in0.0 mm 0.00 in0.0 mm 0.00 in0.0 mm
03:29 AM 25.2°F-3.8°C 8.2°F-13.2°C 48% Calm Calm -- 25.37 in859.1 mb 0.00 in0.0 mm 0.00 in0.0 mm 0.00 in0.0 mm
03:24 AM 24.6°F-4.1°C 7.7°F-13.5°C 48% Calm Calm -- 25.37 in859.1 mb 0.00 in0.0 mm 0.00 in0.0 mm 0.00 in0.0 mm
03:19 AM 24.4°F-4.2°C 7.2°F-13.8°C 47% Calm Calm -- 25.37 in859.1 mb 0.00 in0.0 mm 0.00 in0.0 mm 0.00 in0.0 mm
03:14 AM 24.8°F-4.0°C 7.5°F-13.6°C 47% Calm Calm 3.6 mph5.8 kmh 25.37 in859.1 mb 0.00 in0.0 mm 0.00 in0.0 mm 0.00 in0.0 mm
03:09 AM 24.8°F-4.0°C 7.0°F-13.9°C 46% Calm Calm -- 25.37 in859.1 mb 0.00 in0.0 mm 0.00 in0.0 mm 0.00 in0.0 mm
03:04 AM 24.8°F-4.0°C 6.4°F-14.2°C 45% Calm Calm 4.5 mph7.2 kmh 25.37 in859.1 mb 0.00 in0.0 mm 0.00 in0.0 mm 0.00 in0.0 mm
02:59 AM 25.9°F-3.4°C 7.0°F-13.9°C 44% Calm Calm -- 25.37 in859.1 mb 0.00 in0.0 mm 0.00 in0.0 mm 0.00 in0.0 mm
02:54 AM 26.1°F-3.3°C 6.6°F-14.1°C 43% Calm Calm -- 25.37 in859.1 mb 0.00 in0.0 mm 0.00 in0.0 mm 0.00 in0.0 mm
02:49 AM 27.0°F-2.8°C 8.1°F-13.3°C 44% Calm Calm -- 25.37 in859.1 mb 0.00 in0.0 mm 0.00 in0.0 mm 0.00 in0.0 mm
02:44 AM 27.3°F-2.6°C 8.2°F-13.2°C 44% Calm Calm -- 25.37 in859.1 mb 0.00 in0.0 mm 0.00 in0.0 mm 0.00 in0.0 mm
02:39 AM 26.6°F-3.0°C 8.2°F-13.2°C 45% Calm Calm -- 25.37 in859.1 mb 0.00 in0.0 mm 0.00 in0.0 mm 0.00 in0.0 mm
02:34 AM 26.4°F-3.1°C 8.1°F-13.3°C 45% Calm Calm -- 25.37 in859.1 mb 0.00 in0.0 mm 0.00 in0.0 mm 0.00 in0.0 mm
02:29 AM 26.2°F-3.2°C 7.9°F-13.4°C 45% Calm Calm -- 25.37 in859.1 mb 0.00 in0.0 mm 0.00 in0.0 mm 0.00 in0.0 mm
02:24 AM 26.8°F-2.9°C 8.2°F-13.2°C 45% Calm Calm -- 25.37 in859.1 mb 0.00 in0.0 mm 0.00 in0.0 mm 0.00 in0.0 mm
02:19 AM 27.0°F-2.8°C 8.1°F-13.3°C 44% Calm Calm -- 25.37 in859.1 mb 0.00 in0.0 mm 0.00 in0.0 mm 0.00 in0.0 mm
02:14 AM 27.3°F-2.6°C 8.8°F-12.9°C 45% Calm Calm 2.7 mph4.3 kmh 25.37 in859.1 mb 0.00 in0.0 mm 0.00 in0.0 mm 0.00 in0.0 mm
02:09 AM 27.1°F-2.7°C 8.6°F-13.0°C 45% Calm Calm -- 25.37 in859.1 mb 0.00 in0.0 mm 0.00 in0.0 mm 0.00 in0.0 mm
02:04 AM 27.1°F-2.7°C 8.6°F-13.0°C 45% Calm Calm -- 25.37 in859.1 mb 0.00 in0.0 mm 0.00 in0.0 mm 0.00 in0.0 mm
01:59 AM 26.8°F-2.9°C 7.9°F-13.4°C 44% Calm Calm 4.5 mph7.2 kmh 25.37 in859.1 mb 0.00 in0.0 mm 0.00 in0.0 mm 0.00 in0.0 mm
01:54 AM 27.1°F-2.7°C 8.2°F-13.2°C 44% Calm Calm -- 25.37 in859.1 mb 0.00 in0.0 mm 0.00 in0.0 mm 0.00 in0.0 mm
01:49 AM 27.3°F-2.6°C 8.2°F-13.2°C 44% Calm Calm 4.5 mph7.2 kmh 25.37 in859.1 mb 0.00 in0.0 mm 0.00 in0.0 mm 0.00 in0.0 mm
01:44 AM 27.7°F-2.4°C 8.6°F-13.0°C 44% Calm Calm -- 25.37 in859.1 mb 0.00 in0.0 mm 0.00 in0.0 mm 0.00 in0.0 mm
01:39 AM 27.5°F-2.5°C 9.0°F-12.8°C 45% Calm Calm -- 25.37 in859.1 mb 0.00 in0.0 mm 0.00 in0.0 mm 0.00 in0.0 mm
01:34 AM 27.1°F-2.7°C 9.1°F-12.7°C 46% Calm Calm -- 25.37 in859.1 mb 0.00 in0.0 mm 0.00 in0.0 mm 0.00 in0.0 mm
01:29 AM 27.1°F-2.7°C 9.1°F-12.7°C 46% Calm Calm -- 25.37 in859.1 mb 0.00 in0.0 mm 0.00 in0.0 mm 0.00 in0.0 mm
01:24 AM 27.1°F-2.7°C 9.7°F-12.4°C 47% Calm Calm -- 25.37 in859.1 mb 0.00 in0.0 mm 0.00 in0.0 mm 0.00 in0.0 mm
01:19 AM 26.8°F-2.9°C 9.7°F-12.4°C 48% Calm Calm -- 25.37 in859.1 mb 0.00 in0.0 mm 0.00 in0.0 mm 0.00 in0.0 mm
01:14 AM 26.4°F-3.1°C 9.5°F-12.5°C 48% Calm Calm -- 25.37 in859.1 mb 0.00 in0.0 mm 0.00 in0.0 mm 0.00 in0.0 mm
01:09 AM 26.4°F-3.1°C 9.5°F-12.5°C 48% Calm Calm -- 25.37 in859.1 mb 0.00 in0.0 mm 0.00 in0.0 mm 0.00 in0.0 mm
01:04 AM 26.1°F-3.3°C 8.6°F-13.0°C 47% Calm Calm -- 25.37 in859.1 mb 0.00 in0.0 mm 0.00 in0.0 mm 0.00 in0.0 mm
12:59 AM 26.2°F-3.2°C 8.8°F-12.9°C 47% Calm Calm -- 25.37 in859.1 mb 0.00 in0.0 mm 0.00 in0.0 mm 0.00 in0.0 mm
12:54 AM 26.2°F-3.2°C 8.2°F-13.2°C 46% Calm Calm -- 25.37 in859.1 mb 0.00 in0.0 mm 0.00 in0.0 mm 0.00 in0.0 mm
12:49 AM 26.4°F-3.1°C 8.4°F-13.1°C 46% Calm Calm -- 25.37 in859.1 mb 0.00 in0.0 mm 0.00 in0.0 mm 0.00 in0.0 mm
12:44 AM 26.6°F-3.0°C 8.6°F-13.0°C 46% 1.0 mph NW1.6 kmh NW -- 25.37 in859.1 mb 0.00 in0.0 mm 0.00 in0.0 mm 0.00 in0.0 mm
12:39 AM 26.2°F-3.2°C 8.2°F-13.2°C 46% 1.0 mph NW1.6 kmh NW 4.5 mph7.2 kmh 25.37 in859.1 mb 0.00 in0.0 mm 0.00 in0.0 mm 0.00 in0.0 mm
12:34 AM 26.1°F-3.3°C 7.7°F-13.5°C 45% Calm Calm 4.9 mph7.9 kmh 25.37 in859.1 mb 0.00 in0.0 mm 0.00 in0.0 mm 0.00 in0.0 mm
12:29 AM 26.2°F-3.2°C 7.9°F-13.4°C 45% Calm Calm -- 25.37 in859.1 mb 0.00 in0.0 mm 0.00 in0.0 mm 0.00 in0.0 mm
12:24 AM 27.1°F-2.7°C 8.2°F-13.2°C 44% Calm Calm -- 25.37 in859.1 mb 0.00 in0.0 mm 0.00 in0.0 mm 0.00 in0.0 mm
12:19 AM 27.1°F-2.7°C 8.2°F-13.2°C 44% Calm Calm -- 25.37 in859.1 mb 0.00 in0.0 mm 0.00 in0.0 mm 0.00 in0.0 mm
12:14 AM 27.7°F-2.4°C 8.1°F-13.3°C 43% Calm Calm -- 25.37 in859.1 mb 0.00 in0.0 mm 0.00 in0.0 mm 0.00 in0.0 mm
12:09 AM 28.9°F-1.7°C 9.3°F-12.6°C 43% 2.0 mph WNW3.2 kmh WNW 4.9 mph7.9 kmh 25.37 in859.1 mb 0.00 in0.0 mm 0.00 in0.0 mm 0.00 in0.0 mm
12:04 AM 28.9°F-1.7°C 10.2°F-12.1°C 45% 2.0 mph WNW3.2 kmh WNW 5.8 mph9.3 kmh 25.37 in859.1 mb 0.00 in0.0 mm 0.00 in0.0 mm 0.00 in0.0 mm